createdAt,value
2022-11-17T00:01:41.924Z,87.20
2022-11-17T00:03:46.262Z,83.28
2022-11-17T00:05:50.333Z,78.03
2022-11-17T00:07:54.544Z,86.78
2022-11-17T00:09:58.730Z,80.78
2022-11-17T00:12:22.706Z,80.25
2022-11-17T00:14:36.837Z,83.82
2022-11-17T00:16:42.656Z,87.10
2022-11-17T00:19:04.507Z,77.22
2022-11-17T00:21:19.891Z,83.80
2022-11-17T00:23:24.088Z,78.97
2022-11-17T00:25:28.165Z,83.53
2022-11-17T00:27:32.261Z,87.63
2022-11-17T00:29:39.349Z,91.47
2022-11-17T00:32:02.274Z,93.22
2022-11-17T00:34:05.883Z,86.13
2022-11-17T00:36:10.099Z,81.07
2022-11-17T00:38:17.010Z,81.53
2022-11-17T00:40:21.210Z,79.93
2022-11-17T00:42:25.523Z,85.30
2022-11-17T00:44:30.036Z,80.88
2022-11-17T00:46:34.737Z,87.63
2022-11-17T00:48:40.474Z,82.18
2022-11-17T00:50:44.506Z,86.78
2022-11-17T00:52:48.566Z,81.90
2022-11-17T00:54:52.685Z,81.20
2022-11-17T00:56:57.135Z,86.10
2022-11-17T00:59:01.565Z,86.43
2022-11-17T01:01:06.304Z,85.13
2022-11-17T01:03:10.466Z,81.60
2022-11-17T01:05:16.103Z,85.47
2022-11-17T01:07:20.902Z,82.60
2022-11-17T01:09:25.883Z,89.55
2022-11-17T01:11:30.360Z,91.00
2022-11-17T01:13:34.786Z,85.03
2022-11-17T01:15:39.082Z,88.45
2022-11-17T01:17:43.315Z,86.75
2022-11-17T01:19:47.449Z,83.75
2022-11-17T01:21:53.197Z,78.43
2022-11-17T01:23:59.438Z,80.25
2022-11-17T01:26:08.086Z,82.88
2022-11-17T01:28:12.158Z,75.93
2022-11-17T01:30:17.809Z,91.38
2022-11-17T01:32:22.012Z,82.50
2022-11-17T01:34:26.153Z,89.63
2022-11-17T01:36:55.564Z,85.38
2022-11-17T01:39:01.090Z,83.32
2022-11-17T01:41:08.457Z,82.55
2022-11-17T01:43:12.970Z,74.80
2022-11-17T01:45:22.031Z,79.30
2022-11-17T01:47:33.113Z,81.40
2022-11-17T01:49:37.410Z,79.15
2022-11-17T01:51:45.657Z,86.72
2022-11-17T01:53:51.411Z,89.88
2022-11-17T01:56:00.602Z,79.82
2022-11-17T01:58:07.967Z,87.85
2022-11-17T02:00:13.889Z,80.65
2022-11-17T02:02:18.744Z,79.78
2022-11-17T02:04:24.265Z,76.07
2022-11-17T02:06:32.481Z,76.57
2022-11-17T02:08:39.686Z,76.65
2022-11-17T02:10:51.305Z,76.30
2022-11-17T02:12:57.866Z,81.43
2022-11-17T02:15:02.767Z,79.78
2022-11-17T02:17:13.747Z,73.25
2022-11-17T02:19:19.017Z,72.95
2022-11-17T02:22:06.099Z,74.60
2022-11-17T02:24:53.019Z,81.75
2022-11-17T02:27:32.078Z,88.55
2022-11-17T02:29:40.875Z,79.30
2022-11-17T02:31:52.306Z,86.25
2022-11-17T02:34:07.788Z,81.80
2022-11-17T02:36:18.494Z,79.88
2022-11-17T02:38:32.088Z,78.85
2022-11-17T02:40:43.096Z,76.47
2022-11-17T02:43:10.280Z,78.20
2022-11-17T02:45:21.210Z,76.82
2022-11-17T02:47:29.649Z,80.40
2022-11-17T02:49:37.852Z,76.72
2022-11-17T02:51:44.106Z,76.25
2022-11-17T02:53:49.233Z,80.32
2022-11-17T02:55:54.691Z,79.95
2022-11-17T02:58:00.317Z,84.63
2022-11-17T03:00:07.579Z,87.82
2022-11-17T03:02:36.548Z,83.10
2022-11-17T03:04:49.189Z,82.88
2022-11-17T03:07:01.750Z,90.25
2022-11-17T03:09:14.725Z,82.80
2022-11-17T03:11:41.086Z,88.47
2022-11-17T03:13:52.764Z,82.55
2022-11-17T03:16:02.786Z,82.55
2022-11-17T03:18:12.080Z,80.75
2022-11-17T03:20:20.904Z,87.35
2022-11-17T03:22:28.801Z,79.63
2022-11-17T03:24:38.090Z,87.53
2022-11-17T03:26:51.812Z,90.55
2022-11-17T03:28:59.301Z,78.65
2022-11-17T03:31:06.617Z,84.55
2022-11-17T03:33:16.860Z,82.50
2022-11-17T03:35:25.267Z,82.70
2022-11-17T03:37:33.167Z,79.53
2022-11-17T03:39:41.441Z,78.40
2022-11-17T03:41:49.621Z,85.80
2022-11-17T03:43:56.161Z,78.32
2022-11-17T03:46:07.048Z,85.55
2022-11-17T03:48:17.876Z,76.30
2022-11-17T03:50:29.454Z,85.47
2022-11-17T03:52:34.907Z,79.38
2022-11-17T03:54:39.711Z,90.72
2022-11-17T03:56:51.872Z,84.88
2022-11-17T03:58:59.087Z,92.75
2022-11-17T04:01:06.978Z,93.50
2022-11-17T04:03:11.280Z,89.25
2022-11-17T04:05:19.386Z,90.35
2022-11-17T04:07:23.709Z,90.25
2022-11-17T04:09:27.762Z,88.63
2022-11-17T04:12:04.407Z,89.70
2022-11-17T04:14:25.904Z,84.63
2022-11-17T04:16:31.349Z,92.35
2022-11-17T04:18:35.562Z,89.55
2022-11-17T04:20:39.810Z,90.22
2022-11-17T04:22:44.068Z,89.85
2022-11-17T04:24:48.176Z,88.22
2022-11-17T04:27:17.878Z,88.43
2022-11-17T04:29:22.009Z,89.47
2022-11-17T04:31:28.001Z,89.05
2022-11-17T04:33:34.063Z,95.90
2022-11-17T04:35:38.428Z,91.97
2022-11-17T04:37:42.966Z,83.60
2022-11-17T04:39:47.302Z,87.72
2022-11-17T04:41:57.569Z,90.53
2022-11-17T04:44:02.773Z,88.00
2022-11-17T04:46:07.121Z,81.60
2022-11-17T04:48:11.300Z,85.03
2022-11-17T04:50:17.531Z,85.50
2022-11-17T04:52:25.519Z,83.68
2022-11-17T04:54:33.661Z,79.25
2022-11-17T04:56:38.414Z,78.20
2022-11-17T04:58:42.903Z,79.05
2022-11-17T05:00:46.970Z,85.95
2022-11-17T05:02:51.097Z,87.95
2022-11-17T05:04:58.342Z,87.28
2022-11-17T05:07:04.267Z,88.43
2022-11-17T05:09:11.245Z,90.82
2022-11-17T05:11:33.735Z,95.18
2022-11-17T05:13:37.164Z,90.30
2022-11-17T05:15:59.065Z,88.43
2022-11-17T05:18:03.221Z,91.18
2022-11-17T05:20:08.281Z,91.38
2022-11-17T05:22:32.746Z,87.15
2022-11-17T05:24:37.214Z,88.43
2022-11-17T05:26:42.334Z,85.80
2022-11-17T05:28:46.747Z,92.72
2022-11-17T05:30:50.900Z,100.80
2022-11-17T05:32:54.997Z,94.68
2022-11-17T05:34:59.171Z,100.57
2022-11-17T05:37:03.294Z,97.75
2022-11-17T05:39:09.720Z,106.68
2022-11-17T05:41:14.058Z,104.25
2022-11-17T05:43:18.308Z,110.70
2022-11-17T05:45:22.477Z,103.20
2022-11-17T05:47:26.689Z,99.75
2022-11-17T05:49:30.925Z,262.58
2022-11-17T05:51:35.552Z,342.40
2022-11-17T05:53:39.910Z,156.90
2022-11-17T05:55:45.758Z,119.15
2022-11-17T05:57:52.012Z,107.65
2022-11-17T06:00:01.062Z,100.70
2022-11-17T06:02:11.281Z,110.07
2022-11-17T06:04:19.327Z,129.30
2022-11-17T06:06:23.716Z,98.22
2022-11-17T06:08:29.153Z,101.65
2022-11-17T06:10:35.827Z,100.68
2022-11-17T06:12:41.349Z,98.70
2022-11-17T06:14:45.508Z,94.10
2022-11-17T06:16:56.280Z,99.40
2022-11-17T06:19:05.488Z,96.15
2022-11-17T06:21:10.361Z,102.07
2022-11-17T06:23:14.588Z,97.03
2022-11-17T06:25:20.439Z,88.43
2022-11-17T06:27:26.015Z,95.68
2022-11-17T06:29:32.466Z,90.75
2022-11-17T06:31:36.564Z,85.07
2022-11-17T06:33:40.917Z,88.57
2022-11-17T06:35:46.524Z,88.93
2022-11-17T06:37:50.790Z,94.85
2022-11-17T06:39:54.923Z,94.57
2022-11-17T06:41:59.249Z,84.47
2022-11-17T06:44:03.456Z,94.03
2022-11-17T06:46:09.010Z,94.05
2022-11-17T06:48:14.791Z,90.75
2022-11-17T06:50:19.156Z,91.15
2022-11-17T06:52:23.200Z,96.22
2022-11-17T06:54:27.451Z,85.85
2022-11-17T06:56:32.382Z,99.75
2022-11-17T06:58:39.050Z,99.43
2022-11-17T07:00:43.545Z,99.63
2022-11-17T07:02:49.084Z,91.75
2022-11-17T07:04:53.562Z,96.63
2022-11-17T07:06:57.881Z,99.85
2022-11-17T07:09:02.251Z,97.47
2022-11-17T07:11:07.731Z,98.45
2022-11-17T07:13:12.079Z,102.07
2022-11-17T07:15:16.461Z,96.93
2022-11-17T07:17:20.575Z,103.05
2022-11-17T07:19:26.147Z,101.72
2022-11-17T07:21:30.472Z,104.47
2022-11-17T07:23:35.882Z,113.07
2022-11-17T07:25:40.139Z,103.18
2022-11-17T07:27:44.450Z,102.32
2022-11-17T07:29:48.703Z,109.88
2022-11-17T07:31:52.925Z,106.07
2022-11-17T07:33:57.161Z,100.53
2022-11-17T07:36:05.902Z,106.55
2022-11-17T07:38:10.160Z,104.47
2022-11-17T07:40:14.471Z,103.45
2022-11-17T07:42:18.742Z,112.05
2022-11-17T07:44:30.014Z,118.43
2022-11-17T07:46:34.305Z,120.22
2022-11-17T07:48:38.691Z,113.13
2022-11-17T07:50:43.058Z,103.40
2022-11-17T07:52:49.354Z,100.95
2022-11-17T07:54:53.645Z,103.78
2022-11-17T07:56:57.746Z,109.70
2022-11-17T07:59:02.011Z,98.70
2022-11-17T08:01:07.248Z,99.70
2022-11-17T08:03:11.609Z,104.95
2022-11-17T08:05:17.437Z,111.32
2022-11-17T08:07:21.840Z,97.20
2022-11-17T08:09:27.496Z,102.57
2022-11-17T08:11:31.734Z,101.88
2022-11-17T08:13:36.235Z,91.05
2022-11-17T08:15:40.566Z,96.72
2022-11-17T08:17:45.095Z,98.20
2022-11-17T08:19:49.300Z,96.45
2022-11-17T08:21:53.405Z,93.45
2022-11-17T08:23:57.655Z,105.30
2022-11-17T08:26:03.956Z,90.68
2022-11-17T08:28:08.216Z,97.60
2022-11-17T08:30:13.044Z,93.47
2022-11-17T08:32:17.421Z,98.65
2022-11-17T08:34:21.640Z,101.90
2022-11-17T08:36:26.089Z,94.78
2022-11-17T08:38:30.496Z,97.47
2022-11-17T08:40:34.870Z,97.45
2022-11-17T08:42:40.860Z,95.40
2022-11-17T08:44:45.693Z,113.57
2022-11-17T08:46:50.544Z,115.88
2022-11-17T08:48:57.100Z,106.75
2022-11-17T08:51:07.078Z,102.40
2022-11-17T08:53:15.534Z,99.28
2022-11-17T08:55:20.184Z,97.85
2022-11-17T08:57:24.893Z,93.40
2022-11-17T08:59:30.565Z,92.40
2022-11-17T09:01:34.962Z,102.53
2022-11-17T09:03:39.553Z,90.97
2022-11-17T09:05:47.164Z,91.22
2022-11-17T09:07:51.463Z,96.85
2022-11-17T09:09:55.680Z,94.45
2022-11-17T09:12:00.511Z,96.90
2022-11-17T09:14:04.938Z,96.75
2022-11-17T09:16:12.679Z,106.78
2022-11-17T09:18:17.267Z,102.47
2022-11-17T09:20:21.771Z,101.20
2022-11-17T09:22:25.881Z,106.30
2022-11-17T09:24:30.163Z,99.32
2022-11-17T09:26:34.463Z,102.30
2022-11-17T09:28:39.352Z,104.63
2022-11-17T09:30:43.816Z,104.15
2022-11-17T09:32:49.604Z,113.13
2022-11-17T09:34:53.884Z,105.55
2022-11-17T09:36:58.274Z,103.57
2022-11-17T09:39:02.454Z,113.53
2022-11-17T09:41:35.511Z,105.00
2022-11-17T09:43:44.302Z,102.72
2022-11-17T09:45:53.421Z,107.13
2022-11-17T09:48:33.573Z,102.93
2022-11-17T09:50:32.735Z,95.30
2022-11-17T09:52:47.928Z,104.82
2022-11-17T09:54:57.739Z,75.85
2022-11-17T09:57:03.502Z,87.55
2022-11-17T09:59:12.224Z,90.43
2022-11-17T10:01:19.143Z,84.22
2022-11-17T10:03:29.794Z,81.78
2022-11-17T10:05:36.574Z,76.03
2022-11-17T10:07:46.888Z,73.40
2022-11-17T10:12:00.763Z,73.72
2022-11-17T10:14:13.334Z,70.60
2022-11-17T10:16:17.672Z,70.63
2022-11-17T10:18:22.026Z,65.13
2022-11-17T10:20:28.038Z,64.57
2022-11-17T10:22:36.361Z,66.28
2022-11-17T10:24:42.756Z,62.30
2022-11-17T10:26:48.847Z,64.85
2022-11-17T10:29:09.655Z,59.42
2022-11-17T10:31:16.574Z,61.47
2022-11-17T10:33:35.304Z,60.60
2022-11-17T10:35:41.244Z,57.28
2022-11-17T10:37:52.864Z,54.13
2022-11-17T10:40:22.072Z,59.88
2022-11-17T10:42:29.328Z,56.85
2022-11-17T10:44:34.987Z,54.97
2022-11-17T10:47:00.541Z,49.78
2022-11-17T10:49:25.612Z,49.03
2022-11-17T10:51:33.612Z,52.55
2022-11-17T10:53:44.920Z,52.85
2022-11-17T10:55:57.479Z,54.13
2022-11-17T10:58:05.382Z,47.55
2022-11-17T11:00:24.889Z,52.30
2022-11-17T11:02:31.493Z,49.53
2022-11-17T11:04:39.549Z,54.58
2022-11-17T11:06:45.312Z,54.55
2022-11-17T11:08:55.797Z,48.45
2022-11-17T11:11:01.186Z,53.33
2022-11-17T11:13:15.887Z,48.90
2022-11-17T11:15:22.885Z,51.75
2022-11-17T11:17:29.826Z,52.45
2022-11-17T11:19:33.963Z,47.75
2022-11-17T11:21:53.049Z,47.08
2022-11-17T11:24:04.043Z,55.63
2022-11-17T11:26:20.317Z,49.58
2022-11-17T11:28:45.615Z,48.67
2022-11-17T11:31:01.151Z,49.97
2022-11-17T11:33:23.504Z,51.22
2022-11-17T11:35:46.843Z,56.08
2022-11-17T11:38:01.179Z,51.20
2022-11-17T11:40:15.652Z,59.20
2022-11-17T11:42:46.733Z,54.88
2022-11-17T11:45:08.306Z,59.33
2022-11-17T11:47:25.611Z,58.55
2022-11-17T11:49:37.780Z,60.85
2022-11-17T11:51:42.460Z,62.13
2022-11-17T11:53:53.792Z,60.47
2022-11-17T11:56:08.811Z,68.57
2022-11-17T11:58:18.794Z,61.42
2022-11-17T12:00:23.497Z,71.43
2022-11-17T12:02:35.756Z,70.70
2022-11-17T12:04:45.528Z,72.75
2022-11-17T12:06:58.398Z,75.35
2022-11-17T12:09:29.275Z,78.60
2022-11-17T12:11:52.191Z,77.15
2022-11-17T12:13:58.546Z,77.85
2022-11-17T12:16:18.459Z,76.93
2022-11-17T12:18:33.508Z,77.10
2022-11-17T12:21:14.688Z,77.38
2022-11-17T12:23:24.535Z,85.50
2022-11-17T12:25:33.129Z,77.50
2022-11-17T12:27:45.936Z,69.18
2022-11-17T12:29:50.206Z,60.42
2022-11-17T12:31:55.736Z,63.25
2022-11-17T12:34:23.621Z,52.22
2022-11-17T12:36:31.686Z,54.95
2022-11-17T12:38:42.890Z,55.30
2022-11-17T12:40:51.283Z,57.65
2022-11-17T12:43:23.105Z,52.65
2022-11-17T12:45:27.251Z,57.25
2022-11-17T12:47:33.210Z,58.58
2022-11-17T12:49:49.088Z,58.70
2022-11-17T12:51:56.880Z,58.60
2022-11-17T12:54:13.747Z,59.75
2022-11-17T12:56:45.730Z,59.70
2022-11-17T12:59:18.980Z,67.05
2022-11-17T13:01:33.858Z,66.45
2022-11-17T13:03:46.809Z,63.35
2022-11-17T13:06:33.654Z,64.72
2022-11-17T13:08:32.497Z,67.22
2022-11-17T13:10:36.630Z,69.40
2022-11-17T13:12:42.409Z,64.95
2022-11-17T13:14:55.081Z,63.90
2022-11-17T13:17:00.438Z,61.22
2022-11-17T13:19:05.513Z,59.55
2022-11-17T13:21:28.812Z,54.00
2022-11-17T13:23:34.473Z,55.55
2022-11-17T13:25:38.748Z,53.47
2022-11-17T13:27:54.156Z,54.42
2022-11-17T13:30:16.725Z,52.05
2022-11-17T13:32:23.861Z,45.58
2022-11-17T13:34:28.052Z,49.40
2022-11-17T13:36:32.297Z,43.47
2022-11-17T13:38:36.396Z,43.20
2022-11-17T13:40:42.701Z,39.58
2022-11-17T13:42:49.739Z,41.47
2022-11-17T13:44:56.043Z,39.25
2022-11-17T13:47:20.931Z,35.33
2022-11-17T13:49:35.479Z,30.63
2022-11-17T13:51:39.823Z,30.30
2022-11-17T13:53:45.766Z,32.28
2022-11-17T13:55:50.623Z,31.10
2022-11-17T13:57:58.471Z,29.33
2022-11-17T14:00:03.804Z,30.08
2022-11-17T14:02:29.560Z,32.88
2022-11-17T14:04:34.989Z,30.98
2022-11-17T14:06:55.083Z,34.40
2022-11-17T14:11:21.600Z,27.17
2022-11-17T14:13:32.194Z,30.20
2022-11-17T14:15:39.102Z,27.13
2022-11-17T14:17:49.603Z,27.05
2022-11-17T14:19:53.757Z,31.48
2022-11-17T14:22:03.883Z,28.33
2022-11-17T14:24:13.841Z,28.27
2022-11-17T14:28:24.504Z,26.77
2022-11-17T14:30:29.978Z,32.30
2022-11-17T14:32:35.005Z,31.27
2022-11-17T14:34:39.154Z,32.08
2022-11-17T14:36:43.485Z,33.45
2022-11-17T14:38:48.237Z,36.33
2022-11-17T14:40:54.219Z,37.42
2022-11-17T14:42:58.634Z,37.75
2022-11-17T14:45:02.826Z,41.38
2022-11-17T14:47:08.632Z,39.67
2022-11-17T14:49:13.246Z,43.28
2022-11-17T14:51:18.079Z,50.60
2022-11-17T14:53:22.209Z,41.45
2022-11-17T14:55:27.881Z,42.95
2022-11-17T14:57:32.054Z,40.33
2022-11-17T14:59:36.165Z,43.55
2022-11-17T15:01:41.177Z,43.72
2022-11-17T15:03:47.609Z,42.03
2022-11-17T15:05:51.876Z,40.92
2022-11-17T15:07:57.722Z,45.45
2022-11-17T15:10:02.214Z,43.15
2022-11-17T15:12:07.063Z,39.30
2022-11-17T15:14:12.445Z,46.35
2022-11-17T15:16:16.782Z,44.88
2022-11-17T15:18:20.950Z,46.53
2022-11-17T15:20:26.569Z,44.75
2022-11-17T15:22:30.705Z,42.50
2022-11-17T15:24:34.878Z,44.00
2022-11-17T15:26:39.140Z,46.97
2022-11-17T15:28:43.763Z,45.85
2022-11-17T15:30:47.964Z,43.45
2022-11-17T15:32:54.136Z,45.75
2022-11-17T15:34:58.238Z,39.78
2022-11-17T15:37:03.773Z,45.13
2022-11-17T15:39:08.838Z,42.72
2022-11-17T15:41:14.231Z,40.90
2022-11-17T15:43:19.186Z,35.10
2022-11-17T15:45:23.572Z,38.17
2022-11-17T15:47:27.619Z,37.50
2022-11-17T15:49:31.865Z,37.35
2022-11-17T15:51:36.057Z,41.60
2022-11-17T15:53:42.431Z,38.65
2022-11-17T15:55:46.614Z,38.97
2022-11-17T15:57:53.455Z,38.35
2022-11-17T15:59:57.538Z,44.00
2022-11-17T16:02:09.680Z,46.10
2022-11-17T16:04:15.723Z,42.67
2022-11-17T16:06:20.436Z,48.63
2022-11-17T16:08:24.498Z,52.03
2022-11-17T16:10:30.000Z,62.78
2022-11-17T16:12:34.090Z,55.03
2022-11-17T16:14:38.247Z,59.72
2022-11-17T16:16:43.829Z,53.83
2022-11-17T16:18:48.110Z,48.00
2022-11-17T16:20:52.695Z,56.78
2022-11-17T16:22:58.779Z,50.30
2022-11-17T16:25:04.131Z,49.30
2022-11-17T16:27:13.228Z,52.25
2022-11-17T16:29:18.058Z,55.88
2022-11-17T16:31:24.139Z,60.03
2022-11-17T16:33:28.255Z,49.47
2022-11-17T16:35:32.438Z,58.50
2022-11-17T16:37:36.569Z,59.75
2022-11-17T16:39:40.939Z,58.85
2022-11-17T16:41:46.565Z,57.45
2022-11-17T16:43:52.344Z,57.70
2022-11-17T16:45:56.507Z,56.08
2022-11-17T16:48:00.918Z,51.53
2022-11-17T16:50:06.149Z,56.72
2022-11-17T16:52:10.410Z,60.72
2022-11-17T16:54:14.808Z,55.60
2022-11-17T16:56:19.049Z,54.05
2022-11-17T16:58:23.227Z,53.97
2022-11-17T17:00:28.788Z,58.28
2022-11-17T17:02:34.773Z,59.28
2022-11-17T17:04:39.034Z,65.28
2022-11-17T17:06:44.837Z,60.33
2022-11-17T17:08:49.117Z,55.95
2022-11-17T17:10:53.841Z,57.33
2022-11-17T17:12:58.046Z,58.70
2022-11-17T17:15:02.495Z,47.17
2022-11-17T17:17:08.233Z,52.35
2022-11-17T17:19:14.191Z,50.35
2022-11-17T17:21:20.105Z,47.50
2022-11-17T17:23:24.800Z,46.40
2022-11-17T17:25:29.049Z,40.50
2022-11-17T17:27:33.160Z,47.00
2022-11-17T17:29:37.485Z,39.25
2022-11-17T17:31:43.321Z,38.55
2022-11-17T17:33:50.172Z,41.05
2022-11-17T17:35:54.714Z,34.05
2022-11-17T17:37:59.098Z,34.25
2022-11-17T17:40:04.141Z,36.58
2022-11-17T17:42:08.305Z,28.45
2022-11-17T17:44:16.495Z,30.27
2022-11-17T17:46:20.773Z,28.05
2022-11-17T17:48:24.909Z,28.17
2022-11-17T17:50:31.540Z,28.58
2022-11-17T17:52:35.703Z,27.67
2022-11-17T17:54:39.901Z,26.73
2022-11-17T17:56:44.570Z,28.40
2022-11-17T17:58:50.996Z,27.02
2022-11-17T18:00:56.400Z,27.98
2022-11-17T18:03:02.351Z,29.63
2022-11-17T18:05:07.306Z,28.95
2022-11-17T18:07:12.876Z,31.23
2022-11-17T18:09:19.813Z,31.63
2022-11-17T18:11:24.328Z,32.75
2022-11-17T18:13:31.636Z,32.22
2022-11-17T18:15:35.846Z,35.33
2022-11-17T18:17:40.363Z,32.42
2022-11-17T18:19:44.780Z,32.67
2022-11-17T18:21:49.059Z,32.67
2022-11-17T18:23:56.044Z,31.67
2022-11-17T18:26:00.534Z,33.03
2022-11-17T18:28:04.673Z,36.05
2022-11-17T18:30:09.921Z,38.22
2022-11-17T18:32:14.074Z,33.30
2022-11-17T18:34:21.170Z,36.10
2022-11-17T18:36:26.025Z,32.25
2022-11-17T18:38:30.847Z,38.72
2022-11-17T18:40:36.617Z,31.27
2022-11-17T18:42:40.831Z,31.67
2022-11-17T18:44:45.090Z,32.53
2022-11-17T18:46:49.609Z,29.80
2022-11-17T18:48:54.222Z,25.95
2022-11-17T18:51:20.319Z,26.40
2022-11-17T18:53:25.035Z,27.90
2022-11-17T18:55:29.207Z,26.17
2022-11-17T18:57:34.889Z,28.83
2022-11-17T18:59:38.995Z,26.88
2022-11-17T19:01:44.185Z,26.00
2022-11-17T19:03:50.462Z,27.58
2022-11-17T19:05:54.621Z,27.40
2022-11-17T19:07:58.932Z,31.17
2022-11-17T19:10:03.166Z,25.08
2022-11-17T19:12:09.872Z,25.75
2022-11-17T19:14:15.589Z,25.75
2022-11-17T19:16:21.820Z,28.15
2022-11-17T19:18:25.959Z,26.83
2022-11-17T19:20:30.046Z,29.30
2022-11-17T19:22:35.454Z,28.00
2022-11-17T19:24:43.203Z,29.48
2022-11-17T19:26:47.565Z,32.00
2022-11-17T19:28:51.896Z,26.40
2022-11-17T19:31:02.479Z,31.75
2022-11-17T19:33:06.567Z,30.90
2022-11-17T19:35:16.914Z,29.42
2022-11-17T19:37:24.154Z,29.90
2022-11-17T19:39:29.285Z,31.75
2022-11-17T19:41:38.695Z,33.88
2022-11-17T19:43:45.358Z,33.63
2022-11-17T19:45:49.966Z,28.38
2022-11-17T19:47:55.571Z,31.30
2022-11-17T19:49:59.623Z,28.33
2022-11-17T19:52:04.459Z,29.65
2022-11-17T19:54:11.120Z,32.85
2022-11-17T19:56:15.431Z,27.98
2022-11-17T19:58:20.406Z,30.00
2022-11-17T20:00:24.784Z,28.48
2022-11-17T20:02:29.093Z,29.63
2022-11-17T20:04:36.004Z,34.08
2022-11-17T20:06:41.098Z,38.67
2022-11-17T20:08:45.999Z,36.13
2022-11-17T20:10:50.177Z,45.40
2022-11-17T20:12:54.470Z,34.45
2022-11-17T20:14:58.728Z,31.55
2022-11-17T20:17:02.942Z,31.80
2022-11-17T20:19:07.305Z,32.83
2022-11-17T20:21:14.475Z,32.25
2022-11-17T20:23:18.703Z,31.10
2022-11-17T20:25:22.791Z,28.85
2022-11-17T20:27:27.084Z,31.08
2022-11-17T20:29:31.216Z,31.02
2022-11-17T20:31:36.630Z,31.92
2022-11-17T20:33:41.909Z,34.78
2022-11-17T20:35:46.044Z,30.70
2022-11-17T20:37:51.744Z,31.67
2022-11-17T20:39:56.514Z,30.45
2022-11-17T20:42:00.717Z,34.38
2022-11-17T20:44:05.197Z,33.85
2022-11-17T20:46:09.415Z,30.05
2022-11-17T20:48:13.696Z,30.23
2022-11-17T20:50:18.294Z,31.42
2022-11-17T20:52:23.783Z,33.85
2022-11-17T20:54:29.320Z,31.75
2022-11-17T20:56:33.542Z,33.72
2022-11-17T20:58:38.505Z,34.80
2022-11-17T21:00:42.733Z,34.13
2022-11-17T21:02:47.006Z,37.38
2022-11-17T21:04:51.438Z,36.92
2022-11-17T21:06:55.685Z,31.58
2022-11-17T21:08:59.806Z,35.10
2022-11-17T21:11:07.429Z,36.70
2022-11-17T21:13:11.757Z,35.95
2022-11-17T21:15:16.609Z,36.00
2022-11-17T21:17:38.181Z,33.40
2022-11-17T21:19:42.319Z,37.45
2022-11-17T21:21:46.785Z,35.10
2022-11-17T21:23:54.350Z,38.35
2022-11-17T21:25:58.722Z,31.13
2022-11-17T21:28:04.249Z,32.97
2022-11-17T21:30:09.819Z,32.17
2022-11-17T21:32:13.864Z,34.47
2022-11-17T21:34:18.189Z,35.63
2022-11-17T21:36:23.564Z,36.92
2022-11-17T21:38:27.591Z,34.35
2022-11-17T21:40:31.667Z,40.40
2022-11-17T21:42:35.712Z,37.70
2022-11-17T21:44:41.429Z,34.28
2022-11-17T21:46:45.490Z,37.78
2022-11-17T21:48:50.390Z,38.22
2022-11-17T21:50:55.182Z,35.72
2022-11-17T21:52:59.312Z,34.17
2022-11-17T21:55:03.422Z,35.83
2022-11-17T21:57:07.615Z,43.47
2022-11-17T21:59:13.512Z,41.10
2022-11-17T22:01:21.354Z,38.35
2022-11-17T22:03:25.975Z,33.45
2022-11-17T22:05:30.281Z,28.58
2022-11-17T22:07:34.401Z,35.53
2022-11-17T22:09:38.925Z,29.80
2022-11-17T22:11:43.000Z,30.58
2022-11-17T22:13:47.175Z,32.50
2022-11-17T22:15:51.313Z,32.13
2022-11-17T22:17:56.806Z,33.65
2022-11-17T22:20:00.946Z,45.22
2022-11-17T22:22:05.088Z,35.60
2022-11-17T22:24:10.858Z,33.72
2022-11-17T22:26:14.950Z,37.25
2022-11-17T22:28:19.179Z,34.88
2022-11-17T22:30:23.452Z,38.97
2022-11-17T22:32:27.602Z,42.40
2022-11-17T22:34:34.067Z,38.47
2022-11-17T22:36:38.391Z,38.05
2022-11-17T22:38:43.221Z,33.25
2022-11-17T22:40:47.349Z,37.13
2022-11-17T22:42:53.838Z,33.78
2022-11-17T22:44:57.971Z,33.30
2022-11-17T22:47:02.213Z,37.20
2022-11-17T22:49:06.285Z,34.90
2022-11-17T22:51:12.511Z,31.05
2022-11-17T22:53:15.726Z,39.80
2022-11-17T22:55:20.115Z,30.83
2022-11-17T22:57:24.228Z,42.05
2022-11-17T22:59:29.675Z,32.45
2022-11-17T23:01:33.825Z,32.67
2022-11-17T23:03:38.057Z,29.67
2022-11-17T23:05:42.242Z,37.40
2022-11-17T23:07:47.865Z,33.75
2022-11-17T23:09:52.112Z,42.78
2022-11-17T23:11:56.354Z,33.50
2022-11-17T23:14:00.443Z,33.85
2022-11-17T23:16:06.013Z,39.22
2022-11-17T23:18:10.177Z,38.85
2022-11-17T23:20:14.564Z,44.30
2022-11-17T23:22:18.729Z,35.22
2022-11-17T23:24:24.479Z,35.13
2022-11-17T23:26:28.614Z,32.78
2022-11-17T23:28:33.212Z,29.95
2022-11-17T23:30:37.335Z,27.77
2022-11-17T23:32:45.542Z,29.48
2022-11-17T23:34:49.755Z,36.70
2022-11-17T23:36:53.852Z,35.30
2022-11-17T23:38:58.454Z,34.83
2022-11-17T23:41:05.733Z,34.17
2022-11-17T23:43:09.820Z,38.00
2022-11-17T23:45:14.092Z,38.80
2022-11-17T23:47:18.152Z,39.08
2022-11-17T23:49:22.395Z,38.28
2022-11-17T23:51:28.827Z,40.67
2022-11-17T23:53:33.264Z,45.78
2022-11-17T23:55:37.418Z,37.25
2022-11-17T23:57:43.104Z,37.45
2022-11-17T23:59:47.237Z,40.45
